sensor_id;sensor_type;location;lat;lon;timestamp;P1;durP1;ratioP1;P2;durP2;ratioP2
85781;SDS011;76219;50.128;8.728;2024-03-23T00:54:29;26.63;;;19.48;;
85781;SDS011;76219;50.128;8.728;2024-03-23T00:56:56;27.42;;;20.15;;
85781;SDS011;76219;50.128;8.728;2024-03-23T00:59:23;25.27;;;19.67;;
85781;SDS011;76219;50.128;8.728;2024-03-23T01:01:53;23.27;;;17.92;;
85781;SDS011;76219;50.128;8.728;2024-03-23T01:04:23;27.42;;;19.40;;
85781;SDS011;76219;50.128;8.728;2024-03-23T01:06:51;24.60;;;18.60;;
85781;SDS011;76219;50.128;8.728;2024-03-23T01:09:17;27.92;;;19.05;;
85781;SDS011;76219;50.128;8.728;2024-03-23T01:11:45;26.67;;;19.42;;
85781;SDS011;76219;50.128;8.728;2024-03-23T01:14:11;27.02;;;20.25;;
85781;SDS011;76219;50.128;8.728;2024-03-23T01:16:39;28.05;;;19.15;;
85781;SDS011;76219;50.128;8.728;2024-03-23T01:19:07;26.98;;;19.92;;
85781;SDS011;76219;50.128;8.728;2024-03-23T01:21:36;29.48;;;18.77;;
85781;SDS011;76219;50.128;8.728;2024-03-23T01:24:03;27.42;;;18.88;;
85781;SDS011;76219;50.128;8.728;2024-03-23T01:26:31;29.48;;;20.08;;
85781;SDS011;76219;50.128;8.728;2024-03-23T01:28:57;28.40;;;19.10;;
85781;SDS011;76219;50.128;8.728;2024-03-23T01:31:25;33.35;;;19.52;;
85781;SDS011;76219;50.128;8.728;2024-03-23T01:33:52;24.58;;;19.60;;
85781;SDS011;76219;50.128;8.728;2024-03-23T01:36:20;23.02;;;18.60;;
85781;SDS011;76219;50.128;8.728;2024-03-23T01:38:48;23.27;;;19.63;;
85781;SDS011;76219;50.128;8.728;2024-03-23T01:41:15;29.80;;;20.35;;
85781;SDS011;76219;50.128;8.728;2024-03-23T01:43:43;24.38;;;19.48;;
85781;SDS011;76219;50.128;8.728;2024-03-23T01:46:11;26.90;;;19.45;;
85781;SDS011;76219;50.128;8.728;2024-03-23T01:48:38;30.17;;;20.85;;
85781;SDS011;76219;50.128;8.728;2024-03-23T01:51:06;30.70;;;20.55;;
85781;SDS011;76219;50.128;8.728;2024-03-23T01:53:34;30.75;;;21.05;;
85781;SDS011;76219;50.128;8.728;2024-03-23T01:56:03;26.55;;;19.38;;
85781;SDS011;76219;50.128;8.728;2024-03-23T01:58:29;28.95;;;21.63;;
85781;SDS011;76219;50.128;8.728;2024-03-23T02:00:58;28.95;;;20.33;;
85781;SDS011;76219;50.128;8.728;2024-03-23T02:03:25;24.75;;;19.48;;
85781;SDS011;76219;50.128;8.728;2024-03-23T02:05:54;27.58;;;19.55;;
85781;SDS011;76219;50.128;8.728;2024-03-23T02:08:23;26.67;;;19.73;;
85781;SDS011;76219;50.128;8.728;2024-03-23T02:10:51;33.13;;;20.55;;
85781;SDS011;76219;50.128;8.728;2024-03-23T02:13:19;26.92;;;20.85;;
85781;SDS011;76219;50.128;8.728;2024-03-23T02:15:48;26.08;;;19.27;;
85781;SDS011;76219;50.128;8.728;2024-03-23T02:18:17;25.40;;;19.45;;
85781;SDS011;76219;50.128;8.728;2024-03-23T02:20:44;23.77;;;18.83;;
85781;SDS011;76219;50.128;8.728;2024-03-23T02:23:15;28.85;;;19.33;;
85781;SDS011;76219;50.128;8.728;2024-03-23T02:25:43;32.45;;;20.63;;
85781;SDS011;76219;50.128;8.728;2024-03-23T02:28:11;31.23;;;20.33;;
85781;SDS011;76219;50.128;8.728;2024-03-23T02:30:39;27.33;;;19.92;;
85781;SDS011;76219;50.128;8.728;2024-03-23T02:33:06;27.55;;;20.10;;
85781;SDS011;76219;50.128;8.728;2024-03-23T02:35:33;34.45;;;19.55;;
85781;SDS011;76219;50.128;8.728;2024-03-23T02:38:00;25.58;;;18.13;;
85781;SDS011;76219;50.128;8.728;2024-03-23T02:40:29;25.73;;;20.23;;
85781;SDS011;76219;50.128;8.728;2024-03-23T02:42:56;28.00;;;20.92;;
85781;SDS011;76219;50.128;8.728;2024-03-23T02:45:24;25.55;;;20.23;;
85781;SDS011;76219;50.128;8.728;2024-03-23T02:47:51;30.65;;;21.38;;
85781;SDS011;76219;50.128;8.728;2024-03-23T02:50:19;28.30;;;21.05;;
85781;SDS011;76219;50.128;8.728;2024-03-23T02:52:47;28.80;;;20.52;;
85781;SDS011;76219;50.128;8.728;2024-03-23T02:55:15;36.65;;;22.52;;
85781;SDS011;76219;50.128;8.728;2024-03-23T02:57:44;28.17;;;21.33;;
85781;SDS011;76219;50.128;8.728;2024-03-23T03:00:12;29.55;;;21.83;;
85781;SDS011;76219;50.128;8.728;2024-03-23T03:02:39;31.75;;;21.55;;
85781;SDS011;76219;50.128;8.728;2024-03-23T03:05:06;29.45;;;20.23;;
85781;SDS011;76219;50.128;8.728;2024-03-23T03:07:35;28.33;;;19.92;;
85781;SDS011;76219;50.128;8.728;2024-03-23T03:10:05;28.73;;;20.15;;
85781;SDS011;76219;50.128;8.728;2024-03-23T03:12:34;28.98;;;20.20;;
85781;SDS011;76219;50.128;8.728;2024-03-23T03:15:05;33.33;;;21.05;;
85781;SDS011;76219;50.128;8.728;2024-03-23T03:17:32;31.20;;;22.52;;
85781;SDS011;76219;50.128;8.728;2024-03-23T03:19:59;31.38;;;21.60;;
85781;SDS011;76219;50.128;8.728;2024-03-23T03:22:27;32.75;;;21.77;;
85781;SDS011;76219;50.128;8.728;2024-03-23T03:24:55;31.08;;;22.38;;
85781;SDS011;76219;50.128;8.728;2024-03-23T03:27:24;30.02;;;20.55;;
85781;SDS011;76219;50.128;8.728;2024-03-23T03:29:51;34.75;;;21.13;;
85781;SDS011;76219;50.128;8.728;2024-03-23T03:32:19;30.38;;;20.00;;
85781;SDS011;76219;50.128;8.728;2024-03-23T03:34:47;31.88;;;20.08;;
85781;SDS011;76219;50.128;8.728;2024-03-23T03:37:15;31.55;;;21.27;;
85781;SDS011;76219;50.128;8.728;2024-03-23T03:39:45;31.80;;;21.85;;
85781;SDS011;76219;50.128;8.728;2024-03-23T03:42:12;32.20;;;21.10;;
85781;SDS011;76219;50.128;8.728;2024-03-23T03:44:39;31.58;;;20.25;;
85781;SDS011;76219;50.128;8.728;2024-03-23T03:47:07;30.48;;;20.85;;
85781;SDS011;76219;50.128;8.728;2024-03-23T03:49:35;31.85;;;20.92;;
85781;SDS011;76219;50.128;8.728;2024-03-23T03:52:02;30.92;;;21.48;;
85781;SDS011;76219;50.128;8.728;2024-03-23T03:54:32;32.05;;;21.45;;
85781;SDS011;76219;50.128;8.728;2024-03-23T03:57:00;30.75;;;20.67;;
85781;SDS011;76219;50.128;8.728;2024-03-23T03:59:29;30.10;;;20.65;;
85781;SDS011;76219;50.128;8.728;2024-03-23T04:01:57;30.52;;;21.15;;
85781;SDS011;76219;50.128;8.728;2024-03-23T04:04:28;27.67;;;19.15;;
85781;SDS011;76219;50.128;8.728;2024-03-23T04:06:59;27.95;;;19.45;;
85781;SDS011;76219;50.128;8.728;2024-03-23T04:09:29;28.15;;;18.50;;
85781;SDS011;76219;50.128;8.728;2024-03-23T04:11:56;25.73;;;17.83;;
85781;SDS011;76219;50.128;8.728;2024-03-23T04:14:23;29.88;;;18.83;;
85781;SDS011;76219;50.128;8.728;2024-03-23T04:16:50;30.08;;;19.58;;
85781;SDS011;76219;50.128;8.728;2024-03-23T04:19:18;27.88;;;18.55;;
85781;SDS011;76219;50.128;8.728;2024-03-23T04:21:45;29.38;;;19.17;;
85781;SDS011;76219;50.128;8.728;2024-03-23T04:24:16;32.80;;;21.65;;
85781;SDS011;76219;50.128;8.728;2024-03-23T04:26:48;30.45;;;21.38;;
85781;SDS011;76219;50.128;8.728;2024-03-23T04:29:15;29.27;;;19.85;;
85781;SDS011;76219;50.128;8.728;2024-03-23T04:31:42;23.67;;;15.70;;
85781;SDS011;76219;50.128;8.728;2024-03-23T04:34:11;22.50;;;14.88;;
85781;SDS011;76219;50.128;8.728;2024-03-23T04:36:39;16.80;;;11.82;;
85781;SDS011;76219;50.128;8.728;2024-03-23T04:39:06;11.52;;;8.80;;
85781;SDS011;76219;50.128;8.728;2024-03-23T04:41:36;11.25;;;6.25;;
85781;SDS011;76219;50.128;8.728;2024-03-23T04:44:04;8.05;;;5.47;;
85781;SDS011;76219;50.128;8.728;2024-03-23T04:46:34;4.53;;;3.53;;
85781;SDS011;76219;50.128;8.728;2024-03-23T04:49:05;3.85;;;2.45;;
85781;SDS011;76219;50.128;8.728;2024-03-23T04:51:35;1.83;;;1.13;;
85781;SDS011;76219;50.128;8.728;2024-03-23T04:54:03;2.05;;;1.20;;
85781;SDS011;76219;50.128;8.728;2024-03-23T04:56:33;2.20;;;1.77;;
85781;SDS011;76219;50.128;8.728;2024-03-23T04:59:02;1.70;;;1.00;;
85781;SDS011;76219;50.128;8.728;2024-03-23T05:01:32;1.10;;;0.57;;
85781;SDS011;76219;50.128;8.728;2024-03-23T05:04:02;0.93;;;0.40;;
85781;SDS011;76219;50.128;8.728;2024-03-23T05:06:31;0.40;;;0.30;;
85781;SDS011;76219;50.128;8.728;2024-03-23T05:08:59;0.82;;;0.40;;
85781;SDS011;76219;50.128;8.728;2024-03-23T05:11:28;0.73;;;0.40;;
85781;SDS011;76219;50.128;8.728;2024-03-23T05:13:55;0.52;;;0.30;;
85781;SDS011;76219;50.128;8.728;2024-03-23T05:16:27;0.95;;;0.40;;
85781;SDS011;76219;50.128;8.728;2024-03-23T05:18:54;1.75;;;0.30;;
85781;SDS011;76219;50.128;8.728;2024-03-23T05:21:22;0.80;;;0.40;;
85781;SDS011;76219;50.128;8.728;2024-03-23T05:23:49;1.10;;;0.40;;
85781;SDS011;76219;50.128;8.728;2024-03-23T05:26:17;0.88;;;0.80;;
85781;SDS011;76219;50.128;8.728;2024-03-23T05:28:46;0.63;;;0.50;;
85781;SDS011;76219;50.128;8.728;2024-03-23T05:31:22;0.77;;;0.63;;
85781;SDS011;76219;50.128;8.728;2024-03-23T05:33:51;0.85;;;0.60;;
85781;SDS011;76219;50.128;8.728;2024-03-23T05:36:19;1.00;;;0.70;;
85781;SDS011;76219;50.128;8.728;2024-03-23T05:38:47;1.25;;;0.52;;
85781;SDS011;76219;50.128;8.728;2024-03-23T05:41:15;0.88;;;0.47;;
85781;SDS011;76219;50.128;8.728;2024-03-23T05:43:42;1.83;;;0.77;;
85781;SDS011;76219;50.128;8.728;2024-03-23T05:46:10;1.02;;;0.57;;
85781;SDS011;76219;50.128;8.728;2024-03-23T05:48:37;1.10;;;0.55;;
85781;SDS011;76219;50.128;8.728;2024-03-23T05:51:07;1.25;;;0.60;;
85781;SDS011;76219;50.128;8.728;2024-03-23T05:53:35;2.78;;;0.88;;
85781;SDS011;76219;50.128;8.728;2024-03-23T05:56:03;0.60;;;0.40;;
85781;SDS011;76219;50.128;8.728;2024-03-23T05:58:29;0.95;;;0.77;;
85781;SDS011;76219;50.128;8.728;2024-03-23T06:00:57;1.00;;;0.60;;
85781;SDS011;76219;50.128;8.728;2024-03-23T06:03:24;1.25;;;0.98;;
85781;SDS011;76219;50.128;8.728;2024-03-23T06:05:53;1.00;;;0.70;;
85781;SDS011;76219;50.128;8.728;2024-03-23T06:08:22;2.03;;;1.33;;
85781;SDS011;76219;50.128;8.728;2024-03-23T06:10:51;0.70;;;0.45;;
85781;SDS011;76219;50.128;8.728;2024-03-23T06:13:17;1.60;;;0.73;;
85781;SDS011;76219;50.128;8.728;2024-03-23T06:15:47;1.42;;;0.70;;
85781;SDS011;76219;50.128;8.728;2024-03-23T06:18:18;1.35;;;0.75;;
85781;SDS011;76219;50.128;8.728;2024-03-23T06:20:46;1.75;;;1.15;;
85781;SDS011;76219;50.128;8.728;2024-03-23T06:23:16;0.28;;;0.20;;
85781;SDS011;76219;50.128;8.728;2024-03-23T06:25:47;1.15;;;0.40;;
85781;SDS011;76219;50.128;8.728;2024-03-23T06:28:15;0.57;;;0.35;;
85781;SDS011;76219;50.128;8.728;2024-03-23T06:30:45;0.28;;;0.10;;
85781;SDS011;76219;50.128;8.728;2024-03-23T06:33:15;0.52;;;0.30;;
85781;SDS011;76219;50.128;8.728;2024-03-23T06:35:42;0.38;;;0.13;;
85781;SDS011;76219;50.128;8.728;2024-03-23T06:38:09;0.20;;;0.10;;
85781;SDS011;76219;50.128;8.728;2024-03-23T06:40:46;0.50;;;0.20;;
85781;SDS011;76219;50.128;8.728;2024-03-23T06:43:17;0.20;;;0.15;;
85781;SDS011;76219;50.128;8.728;2024-03-23T06:45:52;0.22;;;0.20;;
85781;SDS011;76219;50.128;8.728;2024-03-23T06:50:48;0.40;;;0.20;;
85781;SDS011;76219;50.128;8.728;2024-03-23T06:53:15;0.73;;;0.20;;
85781;SDS011;76219;50.128;8.728;2024-03-23T06:55:51;0.10;;;0.10;;
85781;SDS011;76219;50.128;8.728;2024-03-23T06:58:19;0.82;;;0.20;;
85781;SDS011;76219;50.128;8.728;2024-03-23T07:00:48;2.30;;;1.45;;
85781;SDS011;76219;50.128;8.728;2024-03-23T07:03:20;1.15;;;0.70;;
85781;SDS011;76219;50.128;8.728;2024-03-23T07:06:05;1.35;;;0.80;;
85781;SDS011;76219;50.128;8.728;2024-03-23T07:08:33;1.55;;;0.20;;
85781;SDS011;76219;50.128;8.728;2024-03-23T07:14:02;1.85;;;0.60;;
85781;SDS011;76219;50.128;8.728;2024-03-23T07:16:46;1.40;;;0.32;;
85781;SDS011;76219;50.128;8.728;2024-03-23T07:19:15;2.40;;;0.30;;
85781;SDS011;76219;50.128;8.728;2024-03-23T07:21:57;3.60;;;1.48;;
85781;SDS011;76219;50.128;8.728;2024-03-23T07:24:25;2.83;;;0.30;;
85781;SDS011;76219;50.128;8.728;2024-03-23T07:29:40;1.52;;;0.30;;
85781;SDS011;76219;50.128;8.728;2024-03-23T07:32:06;2.65;;;0.52;;
85781;SDS011;76219;50.128;8.728;2024-03-23T07:34:34;0.90;;;0.40;;
85781;SDS011;76219;50.128;8.728;2024-03-23T07:37:03;1.67;;;0.77;;
85781;SDS011;76219;50.128;8.728;2024-03-23T07:39:44;2.55;;;0.88;;
85781;SDS011;76219;50.128;8.728;2024-03-23T07:42:18;1.83;;;0.60;;
85781;SDS011;76219;50.128;8.728;2024-03-23T07:45:00;4.57;;;0.70;;
85781;SDS011;76219;50.128;8.728;2024-03-23T07:47:31;3.42;;;0.60;;
85781;SDS011;76219;50.128;8.728;2024-03-23T07:49:58;4.40;;;1.58;;
85781;SDS011;76219;50.128;8.728;2024-03-23T07:52:30;4.15;;;0.88;;
85781;SDS011;76219;50.128;8.728;2024-03-23T07:54:58;1.88;;;0.73;;
85781;SDS011;76219;50.128;8.728;2024-03-23T07:57:29;6.32;;;1.73;;
85781;SDS011;76219;50.128;8.728;2024-03-23T07:59:56;2.22;;;0.85;;
85781;SDS011;76219;50.128;8.728;2024-03-23T08:02:23;5.50;;;1.40;;
85781;SDS011;76219;50.128;8.728;2024-03-23T08:04:51;2.17;;;1.10;;
85781;SDS011;76219;50.128;8.728;2024-03-23T08:07:19;3.15;;;1.45;;
85781;SDS011;76219;50.128;8.728;2024-03-23T08:09:46;2.55;;;1.10;;
85781;SDS011;76219;50.128;8.728;2024-03-23T08:12:14;5.10;;;1.83;;
85781;SDS011;76219;50.128;8.728;2024-03-23T08:14:43;3.53;;;1.25;;
85781;SDS011;76219;50.128;8.728;2024-03-23T08:17:10;6.43;;;1.42;;
85781;SDS011;76219;50.128;8.728;2024-03-23T08:19:37;5.45;;;1.55;;
85781;SDS011;76219;50.128;8.728;2024-03-23T08:22:05;5.20;;;2.28;;
85781;SDS011;76219;50.128;8.728;2024-03-23T08:24:34;6.07;;;2.90;;
85781;SDS011;76219;50.128;8.728;2024-03-23T08:27:01;4.50;;;2.85;;
85781;SDS011;76219;50.128;8.728;2024-03-23T08:29:28;8.07;;;2.85;;
85781;SDS011;76219;50.128;8.728;2024-03-23T08:32:00;6.20;;;2.97;;
85781;SDS011;76219;50.128;8.728;2024-03-23T08:34:27;7.35;;;2.95;;
85781;SDS011;76219;50.128;8.728;2024-03-23T08:36:55;6.38;;;3.00;;
85781;SDS011;76219;50.128;8.728;2024-03-23T08:39:23;5.68;;;2.55;;
85781;SDS011;76219;50.128;8.728;2024-03-23T08:41:54;8.27;;;2.83;;
85781;SDS011;76219;50.128;8.728;2024-03-23T08:44:22;6.03;;;2.35;;
85781;SDS011;76219;50.128;8.728;2024-03-23T08:46:51;4.95;;;2.83;;
85781;SDS011;76219;50.128;8.728;2024-03-23T08:49:23;8.85;;;3.22;;
85781;SDS011;76219;50.128;8.728;2024-03-23T08:51:51;7.72;;;3.50;;
85781;SDS011;76219;50.128;8.728;2024-03-23T08:54:21;8.23;;;2.28;;
85781;SDS011;76219;50.128;8.728;2024-03-23T08:56:50;5.55;;;3.08;;
85781;SDS011;76219;50.128;8.728;2024-03-23T08:59:21;6.45;;;2.92;;
85781;SDS011;76219;50.128;8.728;2024-03-23T09:02:10;5.30;;;2.97;;
85781;SDS011;76219;50.128;8.728;2024-03-23T09:04:46;6.82;;;2.90;;
85781;SDS011;76219;50.128;8.728;2024-03-23T09:07:26;8.05;;;3.20;;
85781;SDS011;76219;50.128;8.728;2024-03-23T09:10:46;6.22;;;1.88;;
85781;SDS011;76219;50.128;8.728;2024-03-23T09:23:37;7.70;;;1.90;;
85781;SDS011;76219;50.128;8.728;2024-03-23T09:26:34;7.10;;;2.08;;
85781;SDS011;76219;50.128;8.728;2024-03-23T09:29:35;4.65;;;1.65;;
85781;SDS011;76219;50.128;8.728;2024-03-23T09:32:19;8.73;;;2.17;;
85781;SDS011;76219;50.128;8.728;2024-03-23T09:35:20;8.40;;;2.25;;
85781;SDS011;76219;50.128;8.728;2024-03-23T09:38:17;6.35;;;2.42;;
85781;SDS011;76219;50.128;8.728;2024-03-23T09:43:52;8.13;;;2.30;;
85781;SDS011;76219;50.128;8.728;2024-03-23T09:46:25;8.45;;;1.85;;
85781;SDS011;76219;50.128;8.728;2024-03-23T09:49:17;4.53;;;1.60;;
85781;SDS011;76219;50.128;8.728;2024-03-23T09:51:54;7.57;;;2.28;;
85781;SDS011;76219;50.128;8.728;2024-03-23T10:14:13;7.03;;;1.90;;
85781;SDS011;76219;50.128;8.728;2024-03-23T10:17:40;6.65;;;2.10;;
85781;SDS011;76219;50.128;8.728;2024-03-23T10:20:18;6.13;;;1.70;;
85781;SDS011;76219;50.128;8.728;2024-03-23T10:24:09;6.53;;;1.95;;
85781;SDS011;76219;50.128;8.728;2024-03-23T10:30:49;5.88;;;1.55;;
85781;SDS011;76219;50.128;8.728;2024-03-23T10:33:18;3.83;;;1.05;;
85781;SDS011;76219;50.128;8.728;2024-03-23T10:35:46;5.28;;;1.60;;
85781;SDS011;76219;50.128;8.728;2024-03-23T10:38:13;5.80;;;1.23;;
85781;SDS011;76219;50.128;8.728;2024-03-23T10:40:42;5.78;;;1.65;;
85781;SDS011;76219;50.128;8.728;2024-03-23T10:43:09;3.85;;;1.08;;
85781;SDS011;76219;50.128;8.728;2024-03-23T10:45:38;7.03;;;1.38;;
85781;SDS011;76219;50.128;8.728;2024-03-23T10:48:06;5.47;;;1.50;;
85781;SDS011;76219;50.128;8.728;2024-03-23T10:50:35;7.45;;;1.90;;
85781;SDS011;76219;50.128;8.728;2024-03-23T10:53:03;5.65;;;1.42;;
85781;SDS011;76219;50.128;8.728;2024-03-23T10:55:32;7.38;;;1.55;;
85781;SDS011;76219;50.128;8.728;2024-03-23T10:57:59;5.70;;;1.60;;
85781;SDS011;76219;50.128;8.728;2024-03-23T11:00:35;4.35;;;1.08;;
85781;SDS011;76219;50.128;8.728;2024-03-23T11:06:02;5.13;;;1.40;;
85781;SDS011;76219;50.128;8.728;2024-03-23T11:08:40;7.97;;;1.92;;
85781;SDS011;76219;50.128;8.728;2024-03-23T11:11:12;5.57;;;1.05;;
85781;SDS011;76219;50.128;8.728;2024-03-23T11:13:43;9.27;;;2.35;;
85781;SDS011;76219;50.128;8.728;2024-03-23T11:16:16;5.20;;;1.60;;
85781;SDS011;76219;50.128;8.728;2024-03-23T11:18:48;6.38;;;1.30;;
85781;SDS011;76219;50.128;8.728;2024-03-23T11:26:49;6.63;;;1.48;;
85781;SDS011;76219;50.128;8.728;2024-03-23T11:29:16;4.75;;;0.98;;
85781;SDS011;76219;50.128;8.728;2024-03-23T11:31:45;4.30;;;0.70;;
85781;SDS011;76219;50.128;8.728;2024-03-23T11:34:25;5.50;;;1.08;;
85781;SDS011;76219;50.128;8.728;2024-03-23T11:37:22;4.88;;;1.83;;
85781;SDS011;76219;50.128;8.728;2024-03-23T11:39:51;6.82;;;1.00;;
85781;SDS011;76219;50.128;8.728;2024-03-23T11:42:17;7.32;;;1.70;;
85781;SDS011;76219;50.128;8.728;2024-03-23T11:45:06;4.97;;;1.27;;
85781;SDS011;76219;50.128;8.728;2024-03-23T11:48:01;5.75;;;1.45;;
85781;SDS011;76219;50.128;8.728;2024-03-23T11:50:30;5.15;;;1.73;;
85781;SDS011;76219;50.128;8.728;2024-03-23T11:53:09;11.63;;;2.30;;
85781;SDS011;76219;50.128;8.728;2024-03-23T11:55:50;11.60;;;5.13;;
85781;SDS011;76219;50.128;8.728;2024-03-23T11:58:21;5.75;;;1.80;;
85781;SDS011;76219;50.128;8.728;2024-03-23T12:01:09;4.32;;;1.85;;
85781;SDS011;76219;50.128;8.728;2024-03-23T12:03:52;3.50;;;1.50;;
85781;SDS011;76219;50.128;8.728;2024-03-23T12:06:23;4.63;;;1.75;;
85781;SDS011;76219;50.128;8.728;2024-03-23T12:08:51;5.20;;;1.70;;
85781;SDS011;76219;50.128;8.728;2024-03-23T12:11:18;5.05;;;2.13;;
85781;SDS011;76219;50.128;8.728;2024-03-23T12:13:49;4.32;;;1.45;;
85781;SDS011;76219;50.128;8.728;2024-03-23T12:16:20;5.22;;;1.42;;
85781;SDS011;76219;50.128;8.728;2024-03-23T12:18:50;5.83;;;1.63;;
85781;SDS011;76219;50.128;8.728;2024-03-23T12:21:20;4.60;;;1.65;;
85781;SDS011;76219;50.128;8.728;2024-03-23T12:23:51;5.72;;;1.90;;
85781;SDS011;76219;50.128;8.728;2024-03-23T12:26:19;3.90;;;1.65;;
85781;SDS011;76219;50.128;8.728;2024-03-23T12:28:47;5.18;;;1.25;;
85781;SDS011;76219;50.128;8.728;2024-03-23T12:31:14;4.13;;;1.10;;
85781;SDS011;76219;50.128;8.728;2024-03-23T12:33:41;4.70;;;1.48;;
85781;SDS011;76219;50.128;8.728;2024-03-23T12:36:10;4.65;;;1.92;;
85781;SDS011;76219;50.128;8.728;2024-03-23T12:38:38;3.30;;;1.30;;
85781;SDS011;76219;50.128;8.728;2024-03-23T12:41:10;4.78;;;1.65;;
85781;SDS011;76219;50.128;8.728;2024-03-23T12:43:38;5.53;;;1.70;;
85781;SDS011;76219;50.128;8.728;2024-03-23T12:46:14;4.63;;;1.92;;
85781;SDS011;76219;50.128;8.728;2024-03-23T12:48:59;5.47;;;1.50;;
85781;SDS011;76219;50.128;8.728;2024-03-23T12:51:27;5.72;;;1.88;;
85781;SDS011;76219;50.128;8.728;2024-03-23T12:53:54;4.13;;;1.13;;
85781;SDS011;76219;50.128;8.728;2024-03-23T12:56:27;3.55;;;1.33;;
85781;SDS011;76219;50.128;8.728;2024-03-23T12:58:56;7.25;;;1.75;;
85781;SDS011;76219;50.128;8.728;2024-03-23T13:01:25;4.78;;;1.60;;
85781;SDS011;76219;50.128;8.728;2024-03-23T13:03:54;9.48;;;1.75;;
85781;SDS011;76219;50.128;8.728;2024-03-23T13:06:22;6.60;;;2.08;;
85781;SDS011;76219;50.128;8.728;2024-03-23T13:08:49;12.38;;;6.15;;
85781;SDS011;76219;50.128;8.728;2024-03-23T13:11:17;5.72;;;1.92;;
85781;SDS011;76219;50.128;8.728;2024-03-23T13:13:47;10.02;;;2.13;;
85781;SDS011;76219;50.128;8.728;2024-03-23T13:16:25;6.03;;;1.75;;
85781;SDS011;76219;50.128;8.728;2024-03-23T13:18:51;7.18;;;2.80;;
85781;SDS011;76219;50.128;8.728;2024-03-23T13:21:19;4.97;;;2.05;;
85781;SDS011;76219;50.128;8.728;2024-03-23T13:23:48;3.90;;;0.85;;
85781;SDS011;76219;50.128;8.728;2024-03-23T13:26:25;2.22;;;0.80;;
85781;SDS011;76219;50.128;8.728;2024-03-23T13:28:54;3.10;;;0.75;;
85781;SDS011;76219;50.128;8.728;2024-03-23T13:31:21;5.72;;;0.70;;
85781;SDS011;76219;50.128;8.728;2024-03-23T13:33:48;1.63;;;0.75;;
85781;SDS011;76219;50.128;8.728;2024-03-23T13:36:17;2.45;;;0.40;;
85781;SDS011;76219;50.128;8.728;2024-03-23T13:38:44;1.55;;;0.60;;
85781;SDS011;76219;50.128;8.728;2024-03-23T13:41:12;1.90;;;0.47;;
85781;SDS011;76219;50.128;8.728;2024-03-23T13:43:40;2.63;;;0.98;;
85781;SDS011;76219;50.128;8.728;2024-03-23T13:46:16;1.55;;;0.50;;
85781;SDS011;76219;50.128;8.728;2024-03-23T13:48:44;2.90;;;1.25;;
85781;SDS011;76219;50.128;8.728;2024-03-23T13:51:15;0.77;;;0.40;;
85781;SDS011;76219;50.128;8.728;2024-03-23T13:53:51;2.28;;;1.17;;
85781;SDS011;76219;50.128;8.728;2024-03-23T13:56:19;2.30;;;0.60;;
85781;SDS011;76219;50.128;8.728;2024-03-23T13:58:49;0.68;;;0.28;;
85781;SDS011;76219;50.128;8.728;2024-03-23T14:01:27;0.40;;;0.30;;
85781;SDS011;76219;50.128;8.728;2024-03-23T14:03:55;1.00;;;0.38;;
85781;SDS011;76219;50.128;8.728;2024-03-23T14:06:25;2.20;;;0.68;;
85781;SDS011;76219;50.128;8.728;2024-03-23T14:08:52;1.23;;;0.52;;
85781;SDS011;76219;50.128;8.728;2024-03-23T14:11:35;0.73;;;0.20;;
85781;SDS011;76219;50.128;8.728;2024-03-23T14:14:07;1.55;;;0.75;;
85781;SDS011;76219;50.128;8.728;2024-03-23T14:16:38;1.20;;;0.30;;
85781;SDS011;76219;50.128;8.728;2024-03-23T14:19:05;2.30;;;0.70;;
85781;SDS011;76219;50.128;8.728;2024-03-23T14:21:36;3.95;;;0.50;;
85781;SDS011;76219;50.128;8.728;2024-03-23T14:24:04;4.22;;;1.77;;
85781;SDS011;76219;50.128;8.728;2024-03-23T14:27:05;1.20;;;0.40;;
85781;SDS011;76219;50.128;8.728;2024-03-23T14:29:33;2.35;;;0.47;;
85781;SDS011;76219;50.128;8.728;2024-03-23T14:32:21;2.42;;;0.77;;
85781;SDS011;76219;50.128;8.728;2024-03-23T14:34:48;2.50;;;0.50;;
85781;SDS011;76219;50.128;8.728;2024-03-23T14:37:19;1.77;;;0.80;;
85781;SDS011;76219;50.128;8.728;2024-03-23T14:39:46;1.80;;;0.50;;
85781;SDS011;76219;50.128;8.728;2024-03-23T14:42:19;1.35;;;0.47;;
85781;SDS011;76219;50.128;8.728;2024-03-23T14:44:45;1.70;;;0.55;;
85781;SDS011;76219;50.128;8.728;2024-03-23T14:47:18;3.42;;;1.25;;
85781;SDS011;76219;50.128;8.728;2024-03-23T14:52:50;2.17;;;0.40;;
85781;SDS011;76219;50.128;8.728;2024-03-23T14:55:17;2.80;;;0.52;;
85781;SDS011;76219;50.128;8.728;2024-03-23T14:57:45;0.82;;;0.40;;
85781;SDS011;76219;50.128;8.728;2024-03-23T15:00:12;2.72;;;0.43;;
85781;SDS011;76219;50.128;8.728;2024-03-23T15:02:40;1.55;;;0.45;;
85781;SDS011;76219;50.128;8.728;2024-03-23T15:05:07;3.15;;;0.90;;
85781;SDS011;76219;50.128;8.728;2024-03-23T15:07:36;3.42;;;0.85;;
85781;SDS011;76219;50.128;8.728;2024-03-23T15:13:03;1.58;;;0.63;;
85781;SDS011;76219;50.128;8.728;2024-03-23T15:15:32;1.45;;;0.70;;
85781;SDS011;76219;50.128;8.728;2024-03-23T15:18:06;3.45;;;0.55;;
85781;SDS011;76219;50.128;8.728;2024-03-23T15:20:36;1.38;;;0.45;;
85781;SDS011;76219;50.128;8.728;2024-03-23T15:23:04;1.70;;;0.65;;
85781;SDS011;76219;50.128;8.728;2024-03-23T15:25:39;1.13;;;0.55;;
85781;SDS011;76219;50.128;8.728;2024-03-23T15:28:06;3.13;;;0.50;;
85781;SDS011;76219;50.128;8.728;2024-03-23T15:30:34;2.83;;;0.50;;
85781;SDS011;76219;50.128;8.728;2024-03-23T15:33:00;2.35;;;0.55;;
85781;SDS011;76219;50.128;8.728;2024-03-23T15:35:41;1.15;;;0.40;;
85781;SDS011;76219;50.128;8.728;2024-03-23T15:38:08;4.53;;;0.80;;
85781;SDS011;76219;50.128;8.728;2024-03-23T15:40:40;0.60;;;0.38;;
85781;SDS011;76219;50.128;8.728;2024-03-23T15:43:08;2.78;;;1.02;;
85781;SDS011;76219;50.128;8.728;2024-03-23T15:45:37;4.22;;;1.60;;
85781;SDS011;76219;50.128;8.728;2024-03-23T15:48:04;4.25;;;1.13;;
85781;SDS011;76219;50.128;8.728;2024-03-23T15:50:33;3.13;;;0.77;;
85781;SDS011;76219;50.128;8.728;2024-03-23T15:52:59;4.95;;;0.30;;
85781;SDS011;76219;50.128;8.728;2024-03-23T15:55:29;2.53;;;0.52;;
85781;SDS011;76219;50.128;8.728;2024-03-23T15:57:58;1.30;;;0.57;;
85781;SDS011;76219;50.128;8.728;2024-03-23T16:00:26;0.70;;;0.28;;
85781;SDS011;76219;50.128;8.728;2024-03-23T16:02:52;1.95;;;0.73;;
85781;SDS011;76219;50.128;8.728;2024-03-23T16:05:21;3.78;;;0.40;;
85781;SDS011;76219;50.128;8.728;2024-03-23T16:07:49;2.28;;;0.50;;
85781;SDS011;76219;50.128;8.728;2024-03-23T16:10:18;1.75;;;0.40;;
85781;SDS011;76219;50.128;8.728;2024-03-23T16:12:45;1.38;;;0.32;;
85781;SDS011;76219;50.128;8.728;2024-03-23T16:15:16;1.55;;;0.30;;
85781;SDS011;76219;50.128;8.728;2024-03-23T16:17:43;1.98;;;0.45;;
85781;SDS011;76219;50.128;8.728;2024-03-23T16:20:12;3.72;;;0.50;;
85781;SDS011;76219;50.128;8.728;2024-03-23T16:22:39;5.70;;;0.88;;
85781;SDS011;76219;50.128;8.728;2024-03-23T16:25:07;3.90;;;0.82;;
85781;SDS011;76219;50.128;8.728;2024-03-23T16:27:36;2.97;;;0.68;;
85781;SDS011;76219;50.128;8.728;2024-03-23T16:30:04;2.63;;;0.52;;
85781;SDS011;76219;50.128;8.728;2024-03-23T16:32:35;1.85;;;0.73;;
85781;SDS011;76219;50.128;8.728;2024-03-23T16:35:03;2.45;;;0.60;;
85781;SDS011;76219;50.128;8.728;2024-03-23T16:37:30;2.88;;;0.70;;
85781;SDS011;76219;50.128;8.728;2024-03-23T16:39:57;2.10;;;0.88;;
85781;SDS011;76219;50.128;8.728;2024-03-23T16:42:25;4.63;;;1.15;;
85781;SDS011;76219;50.128;8.728;2024-03-23T16:44:58;10.88;;;5.68;;
85781;SDS011;76219;50.128;8.728;2024-03-23T16:47:41;5.05;;;2.03;;
85781;SDS011;76219;50.128;8.728;2024-03-23T16:50:08;3.08;;;1.67;;
85781;SDS011;76219;50.128;8.728;2024-03-23T16:52:43;11.18;;;4.68;;
85781;SDS011;76219;50.128;8.728;2024-03-23T16:55:11;2.60;;;0.70;;